GLO1134 SBSP-SBMG
Flight info
| Callsign | GLO1134 |
|---|---|
| Flight time | 0h 59m |
| Altitude | 33000 |
| Route | ASETA UM415 EGEVA UZ58 LON |
| Aircraft | B738/M-SDE2E3FGHIRWXY/LB1 |
Departure
| Time | 2026-05-07 01:27 |
|---|---|
| Airport | Congonhas–Deputado Freitas Nobre Airport (SBSP) |
Arrival
| Time | 2026-05-07 02:26 |
|---|---|
| Airport | Regional de Maringá - Sílvio Name Júnior Airport (SBMG) |
| Time | Latitude | Longitude | Altitude | Speed | Heading |
|---|---|---|---|---|---|
| 2026-05-07 01:11 | -23.62509 | -46.65963 | 2599 ft | 0 kts | 237° |
| 2026-05-07 01:19 | -23.62499 | -46.65942 | 2599 ft | 4 kts | 264° |
| 2026-05-07 01:19 | -23.62505 | -46.65917 | 2600 ft | 4 kts | 314° |
| 2026-05-07 01:20 | -23.62517 | -46.65906 | 2600 ft | 1 kts | 327° |
| 2026-05-07 01:20 | -23.62518 | -46.65905 | 2600 ft | 0 kts | 327° |
| 2026-05-07 01:22 | -23.62514 | -46.65908 | 2600 ft | 1 kts | 329° |
| 2026-05-07 01:23 | -23.62503 | -46.65911 | 2600 ft | 2 kts | 354° |
| 2026-05-07 01:23 | -23.62483 | -46.65912 | 2600 ft | 4 kts | 357° |
| 2026-05-07 01:23 | -23.62451 | -46.65917 | 2600 ft | 6 kts | 345° |
| 2026-05-07 01:23 | -23.62407 | -46.65935 | 2600 ft | 8 kts | 336° |
| 2026-05-07 01:24 | -23.62350 | -46.65975 | 2599 ft | 10 kts | 327° |
| 2026-05-07 01:24 | -23.62334 | -46.65985 | 2599 ft | 0 kts | 329° |
| 2026-05-07 01:24 | -23.62330 | -46.65988 | 2599 ft | 2 kts | 329° |
| 2026-05-07 01:24 | -23.62301 | -46.66007 | 2599 ft | 8 kts | 329° |
| 2026-05-07 01:25 | -23.62246 | -46.66041 | 2599 ft | 10 kts | 335° |
| 2026-05-07 01:25 | -23.62187 | -46.66077 | 2594 ft | 10 kts | 327° |
| 2026-05-07 01:25 | -23.62132 | -46.66117 | 2591 ft | 9 kts | 327° |
| 2026-05-07 01:25 | -23.62070 | -46.66137 | 2589 ft | 10 kts | 10° |
| 2026-05-07 01:26 | -23.62058 | -46.66073 | 2594 ft | 11 kts | 131° |
| 2026-05-07 01:26 | -23.62069 | -46.66062 | 2591 ft | 0 kts | 143° |
| 2026-05-07 01:26 | -23.62098 | -46.66042 | 2596 ft | 25 kts | 148° |
| 2026-05-07 01:27 | -23.62525 | -46.65744 | 2603 ft | 118 kts | 147° |
| 2026-05-07 01:27 | -23.63415 | -46.65138 | 2861 ft | 172 kts | 146° |
| 2026-05-07 01:27 | -23.64432 | -46.64427 | 4025 ft | 168 kts | 144° |
| 2026-05-07 01:27 | -23.65452 | -46.63759 | 5039 ft | 176 kts | 147° |
| 2026-05-07 01:28 | -23.66540 | -46.63064 | 5789 ft | 185 kts | 147° |
| 2026-05-07 01:28 | -23.67662 | -46.62355 | 6642 ft | 189 kts | 147° |
| 2026-05-07 01:28 | -23.68819 | -46.61614 | 7403 ft | 195 kts | 148° |
| 2026-05-07 01:28 | -23.70117 | -46.60969 | 7683 ft | 225 kts | 173° |
| 2026-05-07 01:29 | -23.71682 | -46.61238 | 7726 ft | 243 kts | 205° |
| 2026-05-07 01:29 | -23.73021 | -46.62457 | 7974 ft | 263 kts | 239° |
| 2026-05-07 01:29 | -23.73569 | -46.64362 | 8513 ft | 272 kts | 267° |
| 2026-05-07 01:29 | -23.73525 | -46.66494 | 8929 ft | 288 kts | 275° |
| 2026-05-07 01:30 | -23.73387 | -46.68674 | 9223 ft | 291 kts | 276° |
| 2026-05-07 01:30 | -23.73253 | -46.70889 | 9226 ft | 293 kts | 275° |
| 2026-05-07 01:30 | -23.73140 | -46.73099 | 9228 ft | 291 kts | 275° |
| 2026-05-07 01:30 | -23.73046 | -46.75306 | 9233 ft | 291 kts | 274° |
| 2026-05-07 01:31 | -23.72959 | -46.77519 | 9232 ft | 292 kts | 274° |
| 2026-05-07 01:31 | -23.72875 | -46.79739 | 9224 ft | 293 kts | 274° |
| 2026-05-07 01:31 | -23.72858 | -46.81971 | 9206 ft | 295 kts | 264° |
| 2026-05-07 01:31 | -23.73359 | -46.84146 | 9209 ft | 295 kts | 253° |
| 2026-05-07 01:32 | -23.73967 | -46.86285 | 9203 ft | 295 kts | 255° |
| 2026-05-07 01:32 | -23.74556 | -46.88434 | 9154 ft | 295 kts | 255° |
| 2026-05-07 01:32 | -23.74810 | -46.90598 | 9139 ft | 291 kts | 278° |
| 2026-05-07 01:32 | -23.74259 | -46.92723 | 9159 ft | 287 kts | 294° |
| 2026-05-07 01:33 | -23.73481 | -46.94697 | 9156 ft | 287 kts | 295° |
| 2026-05-07 01:33 | -23.72937 | -46.96048 | 9155 ft | 288 kts | 295° |
| 2026-05-07 01:33 | -23.72141 | -46.98050 | 9151 ft | 288 kts | 294° |
| 2026-05-07 01:33 | -23.71087 | -47.00747 | 9147 ft | 289 kts | 295° |
| 2026-05-07 01:34 | -23.70567 | -47.02085 | 9159 ft | 289 kts | 294° |
| 2026-05-07 01:34 | -23.69527 | -47.04769 | 9150 ft | 290 kts | 294° |
| 2026-05-07 01:34 | -23.68995 | -47.06144 | 9199 ft | 292 kts | 294° |
| 2026-05-07 01:34 | -23.68198 | -47.08202 | 9909 ft | 296 kts | 294° |
| 2026-05-07 01:35 | -23.67398 | -47.10269 | 10811 ft | 302 kts | 294° |
| 2026-05-07 01:35 | -23.66544 | -47.12471 | 11069 ft | 330 kts | 294° |
| 2026-05-07 01:35 | -23.65308 | -47.15660 | 11603 ft | 354 kts | 294° |
| 2026-05-07 01:35 | -23.64655 | -47.17345 | 12051 ft | 359 kts | 294° |
| 2026-05-07 01:36 | -23.63685 | -47.19849 | 12783 ft | 365 kts | 294° |
| 2026-05-07 01:36 | -23.62686 | -47.22421 | 13501 ft | 371 kts | 294° |
| 2026-05-07 01:36 | -23.61672 | -47.25033 | 14155 ft | 377 kts | 294° |
| 2026-05-07 01:36 | -23.60640 | -47.27688 | 14810 ft | 381 kts | 294° |
| 2026-05-07 01:37 | -23.59603 | -47.30357 | 15512 ft | 384 kts | 293° |
| 2026-05-07 01:37 | -23.58557 | -47.33045 | 16210 ft | 387 kts | 293° |
| 2026-05-07 01:37 | -23.57500 | -47.35764 | 16869 ft | 391 kts | 293° |
| 2026-05-07 01:37 | -23.56433 | -47.38505 | 17500 ft | 395 kts | 293° |
| 2026-05-07 01:38 | -23.55355 | -47.41275 | 18161 ft | 399 kts | 292° |
| 2026-05-07 01:38 | -23.54266 | -47.44068 | 18767 ft | 402 kts | 292° |
| 2026-05-07 01:38 | -23.53171 | -47.46876 | 19349 ft | 404 kts | 292° |
| 2026-05-07 01:38 | -23.52135 | -47.49726 | 19971 ft | 405 kts | 288° |
| 2026-05-07 01:39 | -23.51280 | -47.52657 | 20578 ft | 406 kts | 285° |
| 2026-05-07 01:39 | -23.50489 | -47.55622 | 21172 ft | 409 kts | 284° |
| 2026-05-07 01:39 | -23.49698 | -47.58603 | 21745 ft | 411 kts | 284° |
| 2026-05-07 01:39 | -23.48885 | -47.61597 | 22351 ft | 412 kts | 284° |
| 2026-05-07 01:40 | -23.48051 | -47.64593 | 22957 ft | 414 kts | 285° |
| 2026-05-07 01:40 | -23.47206 | -47.67594 | 23516 ft | 416 kts | 284° |
| 2026-05-07 01:40 | -23.46353 | -47.70613 | 23985 ft | 419 kts | 284° |
| 2026-05-07 01:40 | -23.45494 | -47.73655 | 24367 ft | 422 kts | 284° |
| 2026-05-07 01:41 | -23.44600 | -47.76719 | 24768 ft | 426 kts | 287° |
| 2026-05-07 01:41 | -23.43381 | -47.79679 | 25203 ft | 431 kts | 294° |
| 2026-05-07 01:41 | -23.41961 | -47.82559 | 25686 ft | 432 kts | 295° |
| 2026-05-07 01:41 | -23.40507 | -47.85431 | 26123 ft | 434 kts | 294° |
| 2026-05-07 01:42 | -23.39052 | -47.88319 | 26515 ft | 437 kts | 294° |
| 2026-05-07 01:42 | -23.37601 | -47.91231 | 26905 ft | 439 kts | 294° |
| 2026-05-07 01:42 | -23.36153 | -47.94170 | 27305 ft | 441 kts | 293° |
| 2026-05-07 01:42 | -23.34704 | -47.97128 | 27698 ft | 443 kts | 293° |
| 2026-05-07 01:43 | -23.33253 | -48.00097 | 28076 ft | 445 kts | 292° |
| 2026-05-07 01:43 | -23.31795 | -48.03079 | 28495 ft | 446 kts | 292° |
| 2026-05-07 01:43 | -23.30339 | -48.06051 | 29017 ft | 445 kts | 292° |
| 2026-05-07 01:43 | -23.28894 | -48.09015 | 29591 ft | 441 kts | 290° |
| 2026-05-07 01:44 | -23.27699 | -48.12047 | 30166 ft | 432 kts | 283° |
| 2026-05-07 01:44 | -23.26747 | -48.15134 | 30630 ft | 430 kts | 282° |
| 2026-05-07 01:44 | -23.25828 | -48.18230 | 31068 ft | 429 kts | 281° |
| 2026-05-07 01:44 | -23.24904 | -48.21308 | 31508 ft | 429 kts | 282° |
| 2026-05-07 01:45 | -23.23959 | -48.24378 | 31970 ft | 427 kts | 282° |
| 2026-05-07 01:45 | -23.23001 | -48.27432 | 32463 ft | 426 kts | 282° |
| 2026-05-07 01:45 | -23.22041 | -48.30473 | 32890 ft | 425 kts | 282° |
| 2026-05-07 01:45 | -23.21083 | -48.33520 | 33116 ft | 428 kts | 282° |
| 2026-05-07 01:46 | -23.20118 | -48.36608 | 33118 ft | 435 kts | 282° |
| 2026-05-07 01:46 | -23.18142 | -48.42926 | 33127 ft | 448 kts | 282° |
| 2026-05-07 01:47 | -23.16118 | -48.49373 | 33126 ft | 458 kts | 283° |
| 2026-05-07 01:47 | -23.14472 | -48.56021 | 33118 ft | 450 kts | 271° |
| 2026-05-07 01:48 | -23.14472 | -48.62715 | 33126 ft | 440 kts | 259° |
| 2026-05-07 01:48 | -23.15096 | -48.69330 | 33110 ft | 440 kts | 259° |
| 2026-05-07 01:49 | -23.15699 | -48.75948 | 33115 ft | 440 kts | 260° |
| 2026-05-07 01:49 | -23.16272 | -48.82563 | 33110 ft | 440 kts | 260° |
| 2026-05-07 01:50 | -23.16832 | -48.89184 | 33104 ft | 440 kts | 260° |
| 2026-05-07 01:50 | -23.17389 | -48.95809 | 33100 ft | 439 kts | 260° |
| 2026-05-07 01:51 | -23.17945 | -49.02424 | 33105 ft | 439 kts | 260° |
| 2026-05-07 01:51 | -23.18497 | -49.09036 | 33099 ft | 439 kts | 260° |
| 2026-05-07 01:52 | -23.19046 | -49.15642 | 33105 ft | 439 kts | 260° |
| 2026-05-07 01:52 | -23.19623 | -49.22253 | 33099 ft | 439 kts | 260° |
| 2026-05-07 01:53 | -23.20219 | -49.28859 | 33106 ft | 439 kts | 260° |
| 2026-05-07 01:53 | -23.20807 | -49.35469 | 33092 ft | 439 kts | 260° |
| 2026-05-07 01:54 | -23.21369 | -49.42023 | 33103 ft | 438 kts | 261° |
| 2026-05-07 01:54 | -23.21874 | -49.48623 | 33115 ft | 438 kts | 261° |
| 2026-05-07 01:55 | -23.22378 | -49.55228 | 33092 ft | 438 kts | 261° |
| 2026-05-07 01:55 | -23.22886 | -49.61824 | 33100 ft | 437 kts | 261° |
| 2026-05-07 01:56 | -23.23390 | -49.68409 | 33096 ft | 437 kts | 261° |
| 2026-05-07 01:56 | -23.23893 | -49.75006 | 33089 ft | 437 kts | 261° |
| 2026-05-07 01:57 | -23.24407 | -49.81583 | 33086 ft | 436 kts | 261° |
| 2026-05-07 01:57 | -23.24923 | -49.88159 | 33084 ft | 436 kts | 261° |
| 2026-05-07 01:58 | -23.25435 | -49.94729 | 33098 ft | 436 kts | 261° |
| 2026-05-07 01:58 | -23.25942 | -50.01301 | 33086 ft | 435 kts | 261° |
| 2026-05-07 01:59 | -23.26446 | -50.07854 | 33096 ft | 435 kts | 261° |
| 2026-05-07 01:59 | -23.26946 | -50.14405 | 33086 ft | 435 kts | 261° |
| 2026-05-07 02:00 | -23.27442 | -50.20940 | 33067 ft | 422 kts | 261° |
| 2026-05-07 02:00 | -23.27673 | -50.24048 | 33065 ft | 403 kts | 261° |
| 2026-05-07 02:00 | -23.27892 | -50.26986 | 33069 ft | 386 kts | 261° |
| 2026-05-07 02:01 | -23.28325 | -50.32679 | 32786 ft | 383 kts | 261° |
| 2026-05-07 02:01 | -23.28540 | -50.35537 | 32460 ft | 376 kts | 261° |
| 2026-05-07 02:01 | -23.28751 | -50.38363 | 32086 ft | 372 kts | 261° |
| 2026-05-07 02:01 | -23.28960 | -50.41165 | 31580 ft | 372 kts | 261° |
| 2026-05-07 02:02 | -23.29168 | -50.43964 | 31170 ft | 371 kts | 261° |
| 2026-05-07 02:02 | -23.29374 | -50.46756 | 30768 ft | 368 kts | 262° |
| 2026-05-07 02:02 | -23.29574 | -50.49489 | 30396 ft | 367 kts | 262° |
| 2026-05-07 02:02 | -23.29777 | -50.52247 | 29993 ft | 365 kts | 262° |
| 2026-05-07 02:03 | -23.29977 | -50.54986 | 29570 ft | 362 kts | 262° |
| 2026-05-07 02:03 | -23.30176 | -50.57703 | 29164 ft | 359 kts | 262° |
| 2026-05-07 02:03 | -23.30371 | -50.60377 | 28770 ft | 356 kts | 262° |
| 2026-05-07 02:03 | -23.30565 | -50.63046 | 28384 ft | 353 kts | 262° |
| 2026-05-07 02:04 | -23.30758 | -50.65696 | 28008 ft | 350 kts | 263° |
| 2026-05-07 02:04 | -23.30948 | -50.68321 | 27638 ft | 347 kts | 263° |
| 2026-05-07 02:04 | -23.31137 | -50.70934 | 27264 ft | 345 kts | 263° |
| 2026-05-07 02:04 | -23.31324 | -50.73519 | 26902 ft | 342 kts | 263° |
| 2026-05-07 02:05 | -23.31509 | -50.76096 | 26542 ft | 341 kts | 263° |
| 2026-05-07 02:05 | -23.31694 | -50.78666 | 26186 ft | 340 kts | 264° |
| 2026-05-07 02:05 | -23.31878 | -50.81227 | 25841 ft | 342 kts | 264° |
| 2026-05-07 02:05 | -23.32065 | -50.83831 | 25457 ft | 351 kts | 264° |
| 2026-05-07 02:06 | -23.32256 | -50.86506 | 25071 ft | 355 kts | 264° |
| 2026-05-07 02:06 | -23.32446 | -50.89181 | 24695 ft | 354 kts | 265° |
| 2026-05-07 02:06 | -23.32635 | -50.91845 | 24308 ft | 352 kts | 265° |
| 2026-05-07 02:06 | -23.32822 | -50.94489 | 23936 ft | 350 kts | 265° |
| 2026-05-07 02:07 | -23.32998 | -50.96985 | 23564 ft | 349 kts | 265° |
| 2026-05-07 02:07 | -23.33365 | -51.02210 | 22760 ft | 344 kts | 265° |
| 2026-05-07 02:07 | -23.33546 | -51.04801 | 22384 ft | 341 kts | 265° |
| 2026-05-07 02:08 | -23.33725 | -51.07356 | 22012 ft | 338 kts | 265° |
| 2026-05-07 02:08 | -23.33903 | -51.09902 | 21646 ft | 336 kts | 265° |
| 2026-05-07 02:08 | -23.34084 | -51.12438 | 21208 ft | 336 kts | 265° |
| 2026-05-07 02:08 | -23.34285 | -51.14999 | 20565 ft | 343 kts | 265° |
| 2026-05-07 02:09 | -23.34497 | -51.17599 | 20087 ft | 345 kts | 265° |
| 2026-05-07 02:09 | -23.34711 | -51.20195 | 19670 ft | 345 kts | 265° |
| 2026-05-07 02:09 | -23.34920 | -51.22755 | 19295 ft | 344 kts | 265° |
| 2026-05-07 02:09 | -23.35133 | -51.25373 | 18927 ft | 342 kts | 265° |
| 2026-05-07 02:10 | -23.35338 | -51.27904 | 18555 ft | 341 kts | 265° |
| 2026-05-07 02:10 | -23.35544 | -51.30469 | 18156 ft | 340 kts | 265° |
| 2026-05-07 02:10 | -23.35746 | -51.32984 | 17785 ft | 338 kts | 265° |
| 2026-05-07 02:10 | -23.35949 | -51.35523 | 17422 ft | 335 kts | 265° |
| 2026-05-07 02:11 | -23.36149 | -51.38032 | 17067 ft | 333 kts | 265° |
| 2026-05-07 02:11 | -23.36345 | -51.40496 | 16720 ft | 331 kts | 265° |
| 2026-05-07 02:11 | -23.36541 | -51.42968 | 16373 ft | 328 kts | 265° |
| 2026-05-07 02:11 | -23.36737 | -51.45437 | 16031 ft | 326 kts | 266° |
| 2026-05-07 02:12 | -23.36930 | -51.47885 | 15688 ft | 324 kts | 266° |
| 2026-05-07 02:12 | -23.37122 | -51.50326 | 15332 ft | 323 kts | 266° |
| 2026-05-07 02:12 | -23.37309 | -51.52696 | 14998 ft | 322 kts | 266° |
| 2026-05-07 02:12 | -23.37499 | -51.55114 | 14655 ft | 321 kts | 266° |
| 2026-05-07 02:13 | -23.37687 | -51.57519 | 14316 ft | 320 kts | 267° |
| 2026-05-07 02:13 | -23.37876 | -51.59930 | 13964 ft | 319 kts | 267° |
| 2026-05-07 02:13 | -23.38052 | -51.62182 | 13622 ft | 319 kts | 267° |
| 2026-05-07 02:13 | -23.38238 | -51.64579 | 13268 ft | 317 kts | 267° |
| 2026-05-07 02:14 | -23.38360 | -51.66155 | 13040 ft | 315 kts | 267° |
| 2026-05-07 02:14 | -23.38544 | -51.68514 | 12708 ft | 313 kts | 267° |
| 2026-05-07 02:14 | -23.38723 | -51.70831 | 12378 ft | 312 kts | 268° |
| 2026-05-07 02:14 | -23.38905 | -51.73181 | 12044 ft | 310 kts | 268° |
| 2026-05-07 02:15 | -23.39084 | -51.75502 | 11713 ft | 309 kts | 268° |
| 2026-05-07 02:15 | -23.39259 | -51.77763 | 11390 ft | 307 kts | 268° |
| 2026-05-07 02:15 | -23.39433 | -51.80038 | 11070 ft | 306 kts | 268° |
| 2026-05-07 02:15 | -23.39608 | -51.82317 | 10744 ft | 304 kts | 268° |
| 2026-05-07 02:16 | -23.39777 | -51.84520 | 10418 ft | 304 kts | 268° |
| 2026-05-07 02:16 | -23.39947 | -51.86747 | 10257 ft | 297 kts | 269° |
| 2026-05-07 02:16 | -23.40118 | -51.88960 | 10113 ft | 289 kts | 269° |
| 2026-05-07 02:16 | -23.40284 | -51.91134 | 9826 ft | 287 kts | 269° |
| 2026-05-07 02:17 | -23.40448 | -51.93297 | 9531 ft | 286 kts | 269° |
| 2026-05-07 02:17 | -23.40609 | -51.95425 | 9229 ft | 284 kts | 269° |
| 2026-05-07 02:17 | -23.40770 | -51.97563 | 8934 ft | 283 kts | 269° |
| 2026-05-07 02:17 | -23.40930 | -51.99692 | 8634 ft | 282 kts | 269° |
| 2026-05-07 02:18 | -23.41092 | -52.01838 | 8338 ft | 280 kts | 269° |
| 2026-05-07 02:18 | -23.41251 | -52.03957 | 7955 ft | 282 kts | 268° |
| 2026-05-07 02:18 | -23.41409 | -52.06056 | 7636 ft | 282 kts | 269° |
| 2026-05-07 02:18 | -23.41568 | -52.08183 | 7340 ft | 281 kts | 269° |
| 2026-05-07 02:19 | -23.41727 | -52.10301 | 7053 ft | 280 kts | 269° |
| 2026-05-07 02:19 | -23.41885 | -52.12411 | 6775 ft | 279 kts | 269° |
| 2026-05-07 02:19 | -23.42042 | -52.14510 | 6511 ft | 278 kts | 269° |
| 2026-05-07 02:19 | -23.42200 | -52.16627 | 6220 ft | 276 kts | 269° |
| 2026-05-07 02:20 | -23.42356 | -52.18703 | 5944 ft | 274 kts | 269° |
| 2026-05-07 02:20 | -23.42548 | -52.20756 | 5685 ft | 274 kts | 261° |
| 2026-05-07 02:20 | -23.43402 | -52.22586 | 5509 ft | 273 kts | 228° |
| 2026-05-07 02:20 | -23.44939 | -52.23720 | 5367 ft | 265 kts | 197° |
| 2026-05-07 02:21 | -23.46712 | -52.23942 | 5314 ft | 251 kts | 171° |
| 2026-05-07 02:21 | -23.48312 | -52.23434 | 5212 ft | 238 kts | 148° |
| 2026-05-07 02:21 | -23.49750 | -52.22504 | 5094 ft | 238 kts | 143° |
| 2026-05-07 02:21 | -23.50913 | -52.21300 | 4833 ft | 230 kts | 112° |
| 2026-05-07 02:22 | -23.51145 | -52.19675 | 4685 ft | 213 kts | 77° |
| 2026-05-07 02:22 | -23.50847 | -52.18110 | 4428 ft | 209 kts | 75° |
| 2026-05-07 02:22 | -23.50558 | -52.16586 | 4168 ft | 202 kts | 75° |
| 2026-05-07 02:22 | -23.50271 | -52.15114 | 3895 ft | 193 kts | 74° |
| 2026-05-07 02:23 | -23.50000 | -52.13739 | 3670 ft | 178 kts | 74° |
| 2026-05-07 02:23 | -23.49752 | -52.12488 | 3459 ft | 161 kts | 74° |
| 2026-05-07 02:23 | -23.49529 | -52.11360 | 3270 ft | 144 kts | 73° |
| 2026-05-07 02:23 | -23.49326 | -52.10335 | 3082 ft | 135 kts | 73° |
| 2026-05-07 02:24 | -23.49131 | -52.09352 | 2914 ft | 135 kts | 73° |
| 2026-05-07 02:24 | -23.48926 | -52.08317 | 2744 ft | 142 kts | 74° |
| 2026-05-07 02:24 | -23.48803 | -52.07691 | 2650 ft | 141 kts | 74° |
| 2026-05-07 02:24 | -23.48735 | -52.07347 | 2584 ft | 141 kts | 75° |
| 2026-05-07 02:25 | -23.48649 | -52.06920 | 2495 ft | 141 kts | 75° |
| 2026-05-07 02:25 | -23.48447 | -52.05885 | 2325 ft | 141 kts | 75° |
| 2026-05-07 02:25 | -23.48241 | -52.04837 | 2158 ft | 143 kts | 76° |
| 2026-05-07 02:25 | -23.48035 | -52.03770 | 1998 ft | 143 kts | 78° |
| 2026-05-07 02:26 | -23.47829 | -52.02721 | 1819 ft | 138 kts | 76° |
| 2026-05-07 02:26 | -23.47648 | -52.01813 | 1796 ft | 97 kts | 78° |
| 2026-05-07 02:26 | -23.47551 | -52.01319 | 1795 ft | 48 kts | 77° |
| 2026-05-07 02:26 | -23.47484 | -52.00987 | 1796 ft | 42 kts | 78° |
| 2026-05-07 02:27 | -23.47431 | -52.00719 | 1795 ft | 25 kts | 77° |
| 2026-05-07 02:27 | -23.47422 | -52.00674 | 1795 ft | 1 kts | 77° |
| 2026-05-07 02:27 | -23.47416 | -52.00635 | 1794 ft | 10 kts | 93° |
| 2026-05-07 02:27 | -23.47491 | -52.00608 | 1797 ft | 16 kts | 205° |
| 2026-05-07 02:28 | -23.47584 | -52.00692 | 1798 ft | 18 kts | 244° |
| 2026-05-07 02:28 | -23.47614 | -52.00820 | 1799 ft | 17 kts | 258° |
| 2026-05-07 02:28 | -23.47637 | -52.00945 | 1797 ft | 17 kts | 258° |
| 2026-05-07 02:28 | -23.47677 | -52.01055 | 1796 ft | 11 kts | 228° |
| 2026-05-07 02:29 | -23.47738 | -52.01107 | 1798 ft | 11 kts | 212° |
| 2026-05-07 02:29 | -23.47802 | -52.01148 | 1799 ft | 11 kts | 210° |